Time;durP1;ratioP1;P1;durP2;ratioP2;P2;SDS_P1;SDS_P2;PMS_P1;PMS_P2;Temp;Humidity;BMP_temperature;BMP_pressure;BME280_temperature;BME280_humidity;BME280_pressure;Samples;Min_cycle;Max_cycle;Signal;HPM_P1;HPM_P2
2021/12/23 05:35:35;;;;;;;88.37;36.37;;;;;;;-6.37;79.23;100538.33;2032681;85;21102;-77
2021/12/23 05:51:24;;;;;;;90.67;37.30;;;;;;;-6.38;79.62;100531.94;2071070;85;21071;-75
2021/12/23 06:20:04;;;;;;;95.05;39.85;;;;;;;-6.44;79.83;100501.16;2063457;85;21893;-75
2021/12/23 06:31:38;;;;;;;97.33;40.23;;;;;;;-6.48;80.09;100480.19;2063696;85;21209;-75
2021/12/23 06:34:40;;;;;;;91.10;38.33;;;;;;;-6.48;80.15;100485.34;2047736;84;21065;-74
2021/12/23 06:37:42;;;;;;;96.47;37.70;;;;;;;-6.50;80.07;100489.29;2056725;84;21114;-74
2021/12/23 06:40:44;;;;;;;87.73;33.10;;;;;;;-6.49;80.00;100490.97;2047492;83;21606;-76
2021/12/23 06:43:45;;;;;;;87.83;37.33;;;;;;;-6.47;80.33;100487.90;2058041;83;21066;-75
2021/12/23 06:46:47;;;;;;;90.67;37.33;;;;;;;-6.45;80.20;100486.54;2063942;84;21815;-76
2021/12/23 06:49:50;;;;;;;89.50;35.53;;;;;;;-6.44;80.00;100486.50;2055527;84;21130;-74
2021/12/23 06:52:52;;;;;;;86.70;35.90;;;;;;;-6.40;79.94;100478.20;2059432;83;21002;-75
2021/12/23 06:55:55;;;;;;;81.37;34.13;;;;;;;-6.36;79.93;100481.09;2057718;84;21169;-74
2021/12/23 06:58:57;;;;;;;87.43;34.23;;;;;;;-6.32;79.95;100481.37;2053226;84;20999;-74
2021/12/23 07:01:58;;;;;;;87.10;35.17;;;;;;;-6.28;79.81;100478.23;2059004;84;21058;-75
2021/12/23 07:05:00;;;;;;;80.93;33.03;;;;;;;-6.24;79.79;100464.34;2051039;85;21026;-74
2021/12/23 07:08:10;;;;;;;81.37;34.47;;;;;;;-6.22;79.76;100471.56;2060750;84;21049;-74
2021/12/23 07:11:10;;;;;;;75.67;32.07;;;;;;;-6.20;79.69;100462.03;2062625;84;21026;-73
2021/12/23 07:14:11;;;;;;;79.57;31.97;;;;;;;-6.16;79.54;100453.30;2063945;84;21150;-74
2021/12/23 07:17:13;;;;;;;75.93;33.00;;;;;;;-6.12;79.50;100445.38;2027944;84;21896;-74
2021/12/23 07:20:14;;;;;;;75.90;32.77;;;;;;;-6.06;79.47;100437.85;2068791;84;21062;-74
2021/12/23 07:23:16;;;;;;;83.97;32.80;;;;;;;-6.02;79.37;100430.86;2049891;84;20971;-73
2021/12/23 07:26:17;;;;;;;74.63;29.80;;;;;;;-5.97;79.33;100433.68;2043838;84;21034;-74
2021/12/23 07:29:20;;;;;;;72.47;31.10;;;;;;;-5.92;79.28;100434.75;2036033;85;21035;-74
2021/12/23 07:32:21;;;;;;;74.37;30.97;;;;;;;-5.84;79.19;100434.49;2055758;84;21034;-74
2021/12/23 07:35:23;;;;;;;65.93;28.23;;;;;;;-5.77;79.13;100432.06;2048165;84;21042;-77
2021/12/23 07:38:24;;;;;;;72.90;29.77;;;;;;;-5.71;78.96;100425.40;2053309;84;21409;-80
2021/12/23 07:41:26;;;;;;;74.80;30.37;;;;;;;-5.62;78.93;100421.17;2053581;84;21007;-73
2021/12/23 07:44:28;;;;;;;64.83;27.93;;;;;;;-5.56;78.79;100417.06;2058895;84;22930;-76
2021/12/23 07:47:31;;;;;;;69.07;28.67;;;;;;;-5.50;78.64;100409.07;2044045;84;21081;-75
2021/12/23 07:50:33;;;;;;;64.80;29.23;;;;;;;-5.44;78.46;100406.70;2056153;83;21056;-76
2021/12/23 07:53:34;;;;;;;62.27;27.10;;;;;;;-5.39;78.54;100397.03;2053886;84;21606;-75
2021/12/23 07:56:36;;;;;;;59.77;27.17;;;;;;;-5.36;78.41;100396.91;2067142;84;21025;-74
2021/12/23 07:59:38;;;;;;;65.17;27.30;;;;;;;-5.28;78.52;100395.33;2059157;84;21580;-75
2021/12/23 08:02:40;;;;;;;71.90;27.80;;;;;;;-5.23;78.53;100389.08;2048181;84;21121;-74
2021/12/23 08:05:41;;;;;;;62.43;27.97;;;;;;;-5.18;78.29;100378.52;2051736;84;21062;-75
2021/12/23 08:08:43;;;;;;;62.73;28.10;;;;;;;-5.11;78.27;100383.86;2060672;84;21019;-75
2021/12/23 08:11:44;;;;;;;60.07;26.47;;;;;;;-5.04;78.27;100391.78;2047149;84;21163;-79
2021/12/23 08:14:46;;;;;;;53.93;26.10;;;;;;;-4.98;78.16;100386.81;2069479;83;21650;-74
2021/12/23 08:17:47;;;;;;;56.53;24.57;;;;;;;-4.90;78.04;100377.42;2056525;84;21678;-74
2021/12/23 08:20:49;;;;;;;53.87;25.13;;;;;;;-4.85;77.79;100363.84;2055178;84;21464;-74
2021/12/23 08:23:50;;;;;;;53.40;24.63;;;;;;;-4.78;77.92;100361.41;2055496;84;21065;-74
2021/12/23 08:27:13;;;;;;;56.97;25.73;;;;;;;-4.74;77.55;100362.50;2050367;84;21118;-73
2021/12/23 08:55:59;;;;;;;49.65;24.00;;;;;;;-4.23;77.46;100329.70;2044476;86;21207;-73
2021/12/23 10:02:27;;;;;;;44.65;20.88;;;;;;;-3.49;75.40;100190.98;2047782;86;21205;-74
2021/12/23 16:01:28;;;;;;;42.50;22.70;;;;;;;-1.23;69.50;99455.45;2051119;83;21141;-78
2021/12/23 16:04:33;;;;;;;53.20;27.17;;;;;;;-1.21;69.55;99491.77;2038915;85;21748;-74
2021/12/23 16:07:38;;;;;;;41.33;24.35;;;;;;;-1.20;69.59;99507.30;2043870;84;21102;-74
2021/12/23 16:10:42;;;;;;;43.52;24.52;;;;;;;-1.17;69.49;99502.34;2040114;84;21743;-74
2021/12/23 16:13:43;;;;;;;51.05;27.22;;;;;;;-1.15;69.63;99501.78;2051404;83;21898;-75
2021/12/23 16:16:45;;;;;;;56.65;28.73;;;;;;;-1.10;69.68;99499.66;2049539;84;21297;-73
2021/12/23 16:19:47;;;;;;;48.00;24.35;;;;;;;-1.07;69.65;99489.05;2034662;85;21071;-80
2021/12/23 16:22:49;;;;;;;48.85;24.37;;;;;;;-1.02;69.58;99479.59;2043912;84;21020;-73
2021/12/23 16:25:51;;;;;;;47.95;23.75;;;;;;;-1.02;69.09;99463.50;2050237;84;21768;-80
2021/12/23 16:28:56;;;;;;;45.50;23.65;;;;;;;-1.02;69.02;99467.41;2031472;84;21668;-74
2021/12/23 16:31:57;;;;;;;39.73;21.57;;;;;;;-1.02;69.47;99459.59;2039703;84;21073;-73
2021/12/23 16:34:58;;;;;;;45.73;24.65;;;;;;;-1.00;69.40;99449.91;2046721;84;21663;-74
2021/12/23 16:38:00;;;;;;;42.48;23.22;;;;;;;-0.98;69.52;99455.84;2046875;84;21061;-74
2021/12/23 16:41:02;;;;;;;40.63;23.18;;;;;;;-0.97;69.51;99452.29;2019387;85;21835;-75
2021/12/23 16:44:04;;;;;;;43.80;22.22;;;;;;;-0.96;69.25;99449.20;2022608;85;21071;-74
2021/12/23 16:47:06;;;;;;;41.18;23.42;;;;;;;-0.99;69.10;99454.16;2041499;84;21065;-75
2021/12/23 16:50:10;;;;;;;38.08;21.82;;;;;;;-0.97;69.08;99448.38;2058494;84;21117;-76
2021/12/23 16:53:13;;;;;;;40.58;22.50;;;;;;;-1.01;69.06;99437.84;2044232;84;21738;-74
2021/12/23 16:57:33;;;;;;;41.23;22.25;;;;;;;-1.02;68.79;99437.45;2052758;84;21058;-81
2021/12/23 16:59:21;;;;;;;44.13;23.52;;;;;;;-1.01;69.28;99440.92;2041755;84;21121;-73
2021/12/23 17:02:23;;;;;;;47.80;25.08;;;;;;;-1.01;69.11;99431.33;2043535;84;21457;-74
2021/12/23 17:05:30;;;;;;;46.35;23.12;;;;;;;-1.01;69.06;99418.78;2053507;83;21055;-73
2021/12/23 17:08:32;;;;;;;45.90;23.50;;;;;;;-0.99;69.04;99425.98;2038953;84;21059;-73
2021/12/23 17:11:36;;;;;;;41.37;23.38;;;;;;;-0.96;69.19;99414.91;2046578;83;21381;-74
2021/12/23 17:14:37;;;;;;;50.73;25.85;;;;;;;-0.96;69.13;99408.84;2013084;83;21885;-78
2021/12/23 17:17:39;;;;;;;48.95;25.85;;;;;;;-0.97;69.11;99398.08;2025329;84;21118;-75
2021/12/23 17:23:44;;;;;;;47.88;23.73;;;;;;;-0.96;69.09;99395.38;2038313;84;21175;-74
2021/12/23 17:26:47;;;;;;;51.77;25.35;;;;;;;-0.93;69.11;99389.94;2040585;84;21077;-76
2021/12/23 17:29:51;;;;;;;53.55;26.80;;;;;;;-0.91;69.10;99393.24;2044570;84;21047;-74
2021/12/23 17:32:57;;;;;;;44.27;23.95;;;;;;;-0.88;69.11;99381.77;2041603;83;21628;-81
2021/12/23 17:35:59;;;;;;;44.90;23.50;;;;;;;-0.86;69.05;99377.77;2054517;84;21940;-74
2021/12/23 17:39:00;;;;;;;47.33;24.00;;;;;;;-0.84;68.92;99374.11;2054154;83;21505;-74
2021/12/23 17:42:03;;;;;;;52.17;23.87;;;;;;;-0.81;68.79;99377.79;2034962;84;21048;-74
2021/12/23 17:45:09;;;;;;;46.45;23.05;;;;;;;-0.79;68.89;99360.73;2047673;83;21050;-76
2021/12/23 17:48:13;;;;;;;49.73;25.00;;;;;;;-0.78;68.72;99371.05;2032042;85;21015;-73
2021/12/23 17:51:15;;;;;;;46.48;24.92;;;;;;;-0.78;68.74;99358.50;2052777;83;21049;-73
2021/12/23 17:54:16;;;;;;;42.65;23.60;;;;;;;-0.80;68.58;99362.51;2052993;84;21627;-78
2021/12/23 17:57:18;;;;;;;43.80;23.38;;;;;;;-0.78;68.57;99358.50;2058069;84;21065;-73
2021/12/23 18:00:20;;;;;;;46.53;23.40;;;;;;;-0.76;68.73;99360.50;2041735;84;21039;-79
2021/12/23 18:03:22;;;;;;;52.62;24.00;;;;;;;-0.74;68.68;99357.31;2055132;84;21163;-75
2021/12/23 18:06:24;;;;;;;76.73;30.70;;;;;;;-0.73;68.65;99355.09;2038304;85;21629;-74
2021/12/23 18:09:26;;;;;;;50.63;25.57;;;;;;;-0.73;68.51;99344.67;2065458;83;21049;-74
2021/12/23 18:12:27;;;;;;;47.05;24.60;;;;;;;-0.75;68.54;99346.55;2050251;83;21085;-70
2021/12/23 18:15:29;;;;;;;40.58;21.02;;;;;;;-0.66;68.84;99365.40;2033637;84;21118;-68
2021/12/23 18:18:31;;;;;;;47.60;22.77;;;;;;;-0.57;68.58;99359.97;2030045;84;21303;-71
2021/12/23 18:21:33;;;;;;;46.13;23.22;;;;;;;-0.53;68.53;99351.83;2029986;85;21122;-76
2021/12/23 18:24:37;;;;;;;43.48;23.02;;;;;;;-0.46;68.63;99349.09;2039768;84;21068;-76
2021/12/23 18:27:39;;;;;;;46.18;24.77;;;;;;;-0.40;68.36;99337.86;2045835;84;21311;-75
2021/12/23 18:30:41;;;;;;;39.85;21.97;;;;;;;-0.41;68.26;99338.34;2026763;84;21627;-76
2021/12/23 18:33:43;;;;;;;47.03;25.62;;;;;;;-0.43;68.32;99325.06;2049548;84;21034;-75
2021/12/23 18:36:48;;;;;;;48.48;25.20;;;;;;;-0.41;68.34;99316.66;2022161;83;21074;-77
2021/12/23 18:39:50;;;;;;;50.03;24.45;;;;;;;-0.40;68.16;99305.28;2034551;84;21197;-76
2021/12/23 18:42:53;;;;;;;42.95;23.07;;;;;;;-0.44;68.12;99297.34;2043424;84;21292;-78
2021/12/23 18:45:58;;;;;;;37.65;21.50;;;;;;;-0.50;68.03;99305.98;2038037;84;21879;-76
2021/12/23 18:49:03;;;;;;;47.05;24.18;;;;;;;0.01;72.14;99294.75;2052527;84;21086;-78
2021/12/23 18:52:06;;;;;;;47.03;25.30;;;;;;;0.49;69.08;99289.22;2016120;85;21112;-75
2021/12/23 18:55:11;;;;;;;40.83;23.15;;;;;;;0.34;68.00;99280.36;2044451;83;21510;-76
2021/12/23 18:58:12;;;;;;;44.60;24.45;;;;;;;0.17;67.93;99284.75;2064456;84;21695;-76
2021/12/23 19:01:17;;;;;;;41.15;23.55;;;;;;;0.07;67.57;99276.83;2068521;84;21816;-75
2021/12/23 19:04:45;;;;;;;43.02;23.42;;;;;;;-0.12;67.56;99264.39;2050046;83;21370;-77
2021/12/23 19:07:27;;;;;;;44.93;23.83;;;;;;;-0.29;67.07;99253.15;2040228;84;21324;-79
2021/12/23 19:10:30;;;;;;;39.15;22.62;;;;;;;-0.51;66.64;99226.15;2046763;84;21106;-76
2021/12/23 19:13:31;;;;;;;46.48;25.20;;;;;;;-0.64;67.47;99233.23;2045938;84;21081;-81
2021/12/23 19:16:35;;;;;;;46.25;25.00;;;;;;;-0.74;67.50;99237.00;2049411;84;21909;-78
2021/12/23 19:19:37;;;;;;;59.20;28.83;;;;;;;-0.75;67.95;99235.83;2031895;84;21184;-79
2021/12/23 19:22:41;;;;;;;51.02;26.40;;;;;;;-0.74;67.87;99223.98;2044246;84;21037;-79
2021/12/23 19:25:42;;;;;;;45.28;24.23;;;;;;;-0.79;67.69;99225.27;2044792;84;21114;-77
2021/12/23 19:28:44;;;;;;;45.58;24.72;;;;;;;-0.85;67.77;99228.34;2059103;83;21829;-78
2021/12/23 19:31:46;;;;;;;45.00;24.77;;;;;;;-0.94;67.52;99215.06;2045839;83;21014;-78
2021/12/23 19:34:49;;;;;;;46.08;24.02;;;;;;;-0.97;67.73;99216.60;2061005;83;21091;-77
2021/12/23 19:37:51;;;;;;;45.12;25.15;;;;;;;-1.02;67.96;99214.81;2049900;84;21306;-78
2021/12/23 19:40:53;;;;;;;47.58;24.90;;;;;;;-1.05;68.00;99207.23;2048659;84;21033;-77
2021/12/23 19:43:55;;;;;;;43.73;23.92;;;;;;;-1.08;67.91;99207.47;2039859;84;21125;-78
2021/12/23 20:22:13;;;;;;;59.42;27.73;;;;;;;-0.97;68.79;99158.02;2028166;86;21042;-77
2021/12/23 20:58:12;;;;;;;51.60;26.62;;;;;;;-1.33;73.17;99069.70;2037006;86;21062;-75
2021/12/23 21:16:52;;;;;;;55.17;28.07;;;;;;;-1.34;74.77;99006.89;2029371;86;21177;-75
2021/12/23 21:20:46;;;;;;;57.15;28.12;;;;;;;-1.34;75.05;99006.41;2038733;86;21120;-76
2021/12/23 21:23:50;;;;;;;56.15;30.05;;;;;;;-1.37;75.35;99003.57;2065850;84;21077;-80
2021/12/23 21:26:52;;;;;;;54.00;30.35;;;;;;;-1.36;75.66;98987.00;2048584;83;21798;-69
2021/12/23 21:29:53;;;;;;;50.63;29.15;;;;;;;-1.37;76.02;98984.05;2033017;85;21564;-74
2021/12/23 21:32:55;;;;;;;53.35;27.67;;;;;;;-1.37;76.31;98958.51;2040960;84;21078;-73
2021/12/23 21:35:57;;;;;;;52.60;28.67;;;;;;;-1.37;76.43;98955.91;2039191;83;21582;-73
2021/12/23 21:38:58;;;;;;;55.67;27.45;;;;;;;-1.36;76.66;98936.73;2063004;83;21017;-73
2021/12/23 21:42:03;;;;;;;53.70;28.60;;;;;;;-1.36;76.98;98925.02;2061112;84;21866;-73
2021/12/23 21:45:07;;;;;;;46.45;25.65;;;;;;;-1.36;77.08;98931.05;2052297;83;21032;-75
2021/12/23 21:48:08;;;;;;;53.90;28.80;;;;;;;-1.36;77.45;98922.42;2052825;83;21136;-73
2021/12/23 21:51:11;;;;;;;48.33;26.52;;;;;;;-1.33;77.71;98913.55;2055726;83;21047;-74
2021/12/23 21:54:18;;;;;;;46.50;25.77;;;;;;;-1.32;78.08;98901.73;2056406;83;21018;-73
2021/12/23 21:57:16;;;;;;;46.40;26.90;;;;;;;-1.32;78.02;98900.43;2065230;83;21400;-74
2021/12/23 22:00:21;;;;;;;49.05;26.57;;;;;;;-1.31;78.07;98894.74;2062571;83;21053;-75
2021/12/23 22:03:25;;;;;;;46.13;24.82;;;;;;;-1.26;78.20;98892.61;2072951;83;21069;-76
2021/12/23 22:06:27;;;;;;;42.50;25.02;;;;;;;-1.25;78.46;98876.03;2056921;83;21143;-73
2021/12/23 22:09:28;;;;;;;45.20;25.17;;;;;;;-1.23;78.53;98876.75;2056624;83;21094;-75
2021/12/23 22:12:30;;;;;;;45.88;26.50;;;;;;;-1.24;78.66;98876.38;2057021;82;21074;-73
2021/12/23 22:15:37;;;;;;;52.15;26.80;;;;;;;-1.23;78.70;98873.66;2072836;83;21037;-73
2021/12/23 22:18:39;;;;;;;43.38;24.37;;;;;;;-1.22;79.51;98870.09;2071018;83;21113;-74
2021/12/23 22:21:42;;;;;;;47.58;23.95;;;;;;;-1.22;79.14;98868.80;2050721;84;21046;-81
2021/12/23 22:24:43;;;;;;;50.75;26.25;;;;;;;-1.21;79.37;98855.30;2072288;84;21090;-79
2021/12/23 22:27:45;;;;;;;47.88;24.45;;;;;;;-1.19;79.69;98856.02;2050087;84;21069;-74
2021/12/23 22:30:47;;;;;;;51.90;26.73;;;;;;;-1.17;80.13;98854.12;2068112;83;21109;-75
2021/12/23 22:33:49;;;;;;;45.55;25.25;;;;;;;-1.16;80.07;98838.84;2065283;84;21050;-73
2021/12/23 22:36:51;;;;;;;44.10;24.60;;;;;;;-1.18;80.87;98829.88;2048607;83;21058;-74
2021/12/23 22:56:19;;;;;;;42.93;24.57;;;;;;;-1.10;80.95;98800.59;2055173;86;21839;-73
